sensor_id;sensor_type;location;lat;lon;timestamp;temperature;humidity
37788;DHT22;23627;53.302;-6.362;2022-09-09T00:01:49;15.30;99.90
37788;DHT22;23627;53.302;-6.362;2022-09-09T00:10:09;15.30;99.90
37788;DHT22;23627;53.302;-6.362;2022-09-09T00:15:24;15.20;99.90
37788;DHT22;23627;53.302;-6.362;2022-09-09T00:17:53;15.20;99.90
37788;DHT22;23627;53.302;-6.362;2022-09-09T00:20:47;15.20;99.90
37788;DHT22;23627;53.302;-6.362;2022-09-09T00:23:30;15.20;99.90
37788;DHT22;23627;53.302;-6.362;2022-09-09T00:29:05;15.20;99.90
37788;DHT22;23627;53.302;-6.362;2022-09-09T00:31:35;15.20;99.90
37788;DHT22;23627;53.302;-6.362;2022-09-09T00:34:18;15.10;99.90
37788;DHT22;23627;53.302;-6.362;2022-09-09T00:36:45;15.20;99.90
37788;DHT22;23627;53.302;-6.362;2022-09-09T00:44:59;15.20;99.90
37788;DHT22;23627;53.302;-6.362;2022-09-09T00:47:46;15.20;99.90
37788;DHT22;23627;53.302;-6.362;2022-09-09T00:56:12;15.20;99.90
37788;DHT22;23627;53.302;-6.362;2022-09-09T00:58:29;15.20;99.90
37788;DHT22;23627;53.302;-6.362;2022-09-09T01:03:34;15.20;99.90
37788;DHT22;23627;53.302;-6.362;2022-09-09T01:06:02;15.20;99.90
37788;DHT22;23627;53.302;-6.362;2022-09-09T01:11:34;15.10;99.90
37788;DHT22;23627;53.302;-6.362;2022-09-09T01:14:27;15.10;99.90
37788;DHT22;23627;53.302;-6.362;2022-09-09T01:16:59;15.10;99.90
37788;DHT22;23627;53.302;-6.362;2022-09-09T01:19:45;15.10;99.90
37788;DHT22;23627;53.302;-6.362;2022-09-09T01:22:26;15.10;99.90
37788;DHT22;23627;53.302;-6.362;2022-09-09T01:25:27;15.10;99.90
37788;DHT22;23627;53.302;-6.362;2022-09-09T01:27:57;15.10;99.90
37788;DHT22;23627;53.302;-6.362;2022-09-09T01:30:25;15.00;99.90
37788;DHT22;23627;53.302;-6.362;2022-09-09T01:32:56;15.00;99.90
37788;DHT22;23627;53.302;-6.362;2022-09-09T01:38:01;15.00;99.90
37788;DHT22;23627;53.302;-6.362;2022-09-09T01:40:27;15.00;99.90
37788;DHT22;23627;53.302;-6.362;2022-09-09T01:42:53;15.00;99.90
37788;DHT22;23627;53.302;-6.362;2022-09-09T01:45:20;15.00;99.90
37788;DHT22;23627;53.302;-6.362;2022-09-09T01:47:47;15.00;99.90
37788;DHT22;23627;53.302;-6.362;2022-09-09T01:50:15;15.00;99.90
37788;DHT22;23627;53.302;-6.362;2022-09-09T01:52:43;15.00;99.90
37788;DHT22;23627;53.302;-6.362;2022-09-09T01:55:09;15.00;99.90
37788;DHT22;23627;53.302;-6.362;2022-09-09T01:58:00;15.00;99.90
37788;DHT22;23627;53.302;-6.362;2022-09-09T02:00:32;15.10;99.90
37788;DHT22;23627;53.302;-6.362;2022-09-09T02:03:36;15.00;99.90
37788;DHT22;23627;53.302;-6.362;2022-09-09T02:08:50;15.00;99.90
37788;DHT22;23627;53.302;-6.362;2022-09-09T02:11:20;15.00;99.90
37788;DHT22;23627;53.302;-6.362;2022-09-09T02:13:48;15.00;99.90
37788;DHT22;23627;53.302;-6.362;2022-09-09T02:16:30;15.00;99.90
37788;DHT22;23627;53.302;-6.362;2022-09-09T02:21:44;14.90;99.90
37788;DHT22;23627;53.302;-6.362;2022-09-09T02:24:14;14.90;99.90
37788;DHT22;23627;53.302;-6.362;2022-09-09T02:26:42;14.90;99.90
37788;DHT22;23627;53.302;-6.362;2022-09-09T02:29:17;14.90;99.90
37788;DHT22;23627;53.302;-6.362;2022-09-09T02:31:45;15.00;99.90
37788;DHT22;23627;53.302;-6.362;2022-09-09T02:34:14;15.00;99.90
37788;DHT22;23627;53.302;-6.362;2022-09-09T02:36:43;15.00;99.90
37788;DHT22;23627;53.302;-6.362;2022-09-09T02:39:11;15.00;99.90
37788;DHT22;23627;53.302;-6.362;2022-09-09T02:41:39;15.00;99.90
37788;DHT22;23627;53.302;-6.362;2022-09-09T02:44:14;15.00;99.90
37788;DHT22;23627;53.302;-6.362;2022-09-09T02:47:03;15.00;99.90
37788;DHT22;23627;53.302;-6.362;2022-09-09T02:49:43;15.10;99.90
37788;DHT22;23627;53.302;-6.362;2022-09-09T02:58:09;15.10;99.90
37788;DHT22;23627;53.302;-6.362;2022-09-09T03:00:37;15.00;99.90
37788;DHT22;23627;53.302;-6.362;2022-09-09T03:03:04;15.00;99.90
37788;DHT22;23627;53.302;-6.362;2022-09-09T03:05:30;15.00;99.90
37788;DHT22;23627;53.302;-6.362;2022-09-09T03:07:57;15.00;99.90
37788;DHT22;23627;53.302;-6.362;2022-09-09T03:10:23;15.00;99.90
37788;DHT22;23627;53.302;-6.362;2022-09-09T03:12:49;15.00;99.90
37788;DHT22;23627;53.302;-6.362;2022-09-09T03:15:16;15.00;99.90
37788;DHT22;23627;53.302;-6.362;2022-09-09T03:17:42;15.00;99.90
37788;DHT22;23627;53.302;-6.362;2022-09-09T03:20:08;15.00;99.90
37788;DHT22;23627;53.302;-6.362;2022-09-09T03:22:34;15.00;99.90
37788;DHT22;23627;53.302;-6.362;2022-09-09T03:25:00;15.10;99.90
37788;DHT22;23627;53.302;-6.362;2022-09-09T03:27:28;15.00;99.90
37788;DHT22;23627;53.302;-6.362;2022-09-09T03:29:54;15.00;99.90
37788;DHT22;23627;53.302;-6.362;2022-09-09T03:32:20;15.00;99.90
37788;DHT22;23627;53.302;-6.362;2022-09-09T03:34:48;15.00;99.90
37788;DHT22;23627;53.302;-6.362;2022-09-09T03:37:16;15.00;99.90
37788;DHT22;23627;53.302;-6.362;2022-09-09T03:39:43;15.00;99.90
37788;DHT22;23627;53.302;-6.362;2022-09-09T03:42:08;15.00;99.90
37788;DHT22;23627;53.302;-6.362;2022-09-09T03:44:34;15.00;99.90
37788;DHT22;23627;53.302;-6.362;2022-09-09T03:47:00;15.00;99.90
37788;DHT22;23627;53.302;-6.362;2022-09-09T03:49:26;15.00;99.90
37788;DHT22;23627;53.302;-6.362;2022-09-09T03:51:55;15.00;99.90
37788;DHT22;23627;53.302;-6.362;2022-09-09T03:54:22;15.00;99.90
37788;DHT22;23627;53.302;-6.362;2022-09-09T03:56:48;15.00;99.90
37788;DHT22;23627;53.302;-6.362;2022-09-09T03:59:14;14.90;99.90
37788;DHT22;23627;53.302;-6.362;2022-09-09T04:01:40;14.90;99.90
37788;DHT22;23627;53.302;-6.362;2022-09-09T04:04:05;15.00;99.90
37788;DHT22;23627;53.302;-6.362;2022-09-09T04:06:31;15.00;99.90
37788;DHT22;23627;53.302;-6.362;2022-09-09T04:08:57;15.00;99.90
37788;DHT22;23627;53.302;-6.362;2022-09-09T04:11:22;14.90;99.90
37788;DHT22;23627;53.302;-6.362;2022-09-09T04:13:48;14.90;99.90
37788;DHT22;23627;53.302;-6.362;2022-09-09T04:16:15;14.90;99.90
37788;DHT22;23627;53.302;-6.362;2022-09-09T04:18:41;14.90;99.90
37788;DHT22;23627;53.302;-6.362;2022-09-09T04:21:08;14.90;99.90
37788;DHT22;23627;53.302;-6.362;2022-09-09T04:23:35;14.90;99.90
37788;DHT22;23627;53.302;-6.362;2022-09-09T04:26:02;14.90;99.90
37788;DHT22;23627;53.302;-6.362;2022-09-09T04:28:34;14.90;99.90
37788;DHT22;23627;53.302;-6.362;2022-09-09T04:31:15;14.90;99.90
37788;DHT22;23627;53.302;-6.362;2022-09-09T04:33:42;14.90;99.90
37788;DHT22;23627;53.302;-6.362;2022-09-09T04:36:08;14.90;99.90
37788;DHT22;23627;53.302;-6.362;2022-09-09T04:38:34;14.90;99.90
37788;DHT22;23627;53.302;-6.362;2022-09-09T04:40:59;14.90;99.90
37788;DHT22;23627;53.302;-6.362;2022-09-09T04:43:25;14.90;99.90
37788;DHT22;23627;53.302;-6.362;2022-09-09T04:45:56;14.90;99.90
37788;DHT22;23627;53.302;-6.362;2022-09-09T04:48:22;14.90;99.90
37788;DHT22;23627;53.302;-6.362;2022-09-09T04:50:56;14.90;99.90
37788;DHT22;23627;53.302;-6.362;2022-09-09T04:53:22;14.90;99.90
37788;DHT22;23627;53.302;-6.362;2022-09-09T04:55:47;14.90;99.90
37788;DHT22;23627;53.302;-6.362;2022-09-09T04:58:14;14.90;99.90
37788;DHT22;23627;53.302;-6.362;2022-09-09T05:00:40;14.90;99.90
37788;DHT22;23627;53.302;-6.362;2022-09-09T05:03:06;14.90;99.90
37788;DHT22;23627;53.302;-6.362;2022-09-09T05:05:34;14.90;99.90
37788;DHT22;23627;53.302;-6.362;2022-09-09T05:08:04;14.90;99.90
37788;DHT22;23627;53.302;-6.362;2022-09-09T05:10:31;14.90;99.90
37788;DHT22;23627;53.302;-6.362;2022-09-09T05:12:57;14.80;99.90
37788;DHT22;23627;53.302;-6.362;2022-09-09T05:15:23;14.80;99.90
37788;DHT22;23627;53.302;-6.362;2022-09-09T05:17:48;14.80;99.90
37788;DHT22;23627;53.302;-6.362;2022-09-09T05:20:14;14.70;99.90
37788;DHT22;23627;53.302;-6.362;2022-09-09T05:22:40;14.80;99.90
37788;DHT22;23627;53.302;-6.362;2022-09-09T05:25:06;14.70;99.90
37788;DHT22;23627;53.302;-6.362;2022-09-09T05:27:36;14.80;99.90
37788;DHT22;23627;53.302;-6.362;2022-09-09T05:30:03;14.80;99.90
37788;DHT22;23627;53.302;-6.362;2022-09-09T05:32:30;14.80;99.90
37788;DHT22;23627;53.302;-6.362;2022-09-09T05:34:58;14.70;99.90
37788;DHT22;23627;53.302;-6.362;2022-09-09T05:37:24;14.70;99.90
37788;DHT22;23627;53.302;-6.362;2022-09-09T05:39:50;14.80;99.90
37788;DHT22;23627;53.302;-6.362;2022-09-09T05:42:16;14.70;99.90
37788;DHT22;23627;53.302;-6.362;2022-09-09T05:44:42;14.70;99.90
37788;DHT22;23627;53.302;-6.362;2022-09-09T05:47:08;14.80;99.90
37788;DHT22;23627;53.302;-6.362;2022-09-09T05:49:34;14.80;99.90
37788;DHT22;23627;53.302;-6.362;2022-09-09T05:52:00;14.80;99.90
37788;DHT22;23627;53.302;-6.362;2022-09-09T05:54:26;14.70;99.90
37788;DHT22;23627;53.302;-6.362;2022-09-09T05:56:52;14.80;99.90
37788;DHT22;23627;53.302;-6.362;2022-09-09T05:59:19;14.80;99.90
37788;DHT22;23627;53.302;-6.362;2022-09-09T06:01:45;14.80;99.90
37788;DHT22;23627;53.302;-6.362;2022-09-09T06:04:11;14.80;99.90
37788;DHT22;23627;53.302;-6.362;2022-09-09T06:06:38;14.80;99.90
37788;DHT22;23627;53.302;-6.362;2022-09-09T06:09:06;14.80;99.90
37788;DHT22;23627;53.302;-6.362;2022-09-09T06:11:35;14.80;99.90
37788;DHT22;23627;53.302;-6.362;2022-09-09T06:14:01;14.80;99.90
37788;DHT22;23627;53.302;-6.362;2022-09-09T06:16:28;14.80;99.90
37788;DHT22;23627;53.302;-6.362;2022-09-09T06:18:55;14.80;99.90
37788;DHT22;23627;53.302;-6.362;2022-09-09T06:21:24;14.80;99.90
37788;DHT22;23627;53.302;-6.362;2022-09-09T06:23:50;14.80;99.90
37788;DHT22;23627;53.302;-6.362;2022-09-09T06:28:50;14.90;99.90
37788;DHT22;23627;53.302;-6.362;2022-09-09T06:31:17;14.90;99.90
37788;DHT22;23627;53.302;-6.362;2022-09-09T06:33:47;14.90;99.90
37788;DHT22;23627;53.302;-6.362;2022-09-09T06:36:15;14.90;99.90
37788;DHT22;23627;53.302;-6.362;2022-09-09T06:38:41;14.90;99.90
37788;DHT22;23627;53.302;-6.362;2022-09-09T06:41:09;14.90;99.90
37788;DHT22;23627;53.302;-6.362;2022-09-09T06:43:37;14.90;99.90
37788;DHT22;23627;53.302;-6.362;2022-09-09T06:46:08;14.90;99.90
37788;DHT22;23627;53.302;-6.362;2022-09-09T06:48:35;14.90;99.90
37788;DHT22;23627;53.302;-6.362;2022-09-09T06:51:14;14.90;99.90
37788;DHT22;23627;53.302;-6.362;2022-09-09T06:53:41;14.90;99.90
37788;DHT22;23627;53.302;-6.362;2022-09-09T06:58:37;14.90;99.90
37788;DHT22;23627;53.302;-6.362;2022-09-09T07:01:08;14.90;99.90
37788;DHT22;23627;53.302;-6.362;2022-09-09T07:03:35;14.90;99.90
37788;DHT22;23627;53.302;-6.362;2022-09-09T07:06:02;15.00;99.90
37788;DHT22;23627;53.302;-6.362;2022-09-09T07:08:29;15.00;99.90
37788;DHT22;23627;53.302;-6.362;2022-09-09T07:11:02;15.00;99.90
37788;DHT22;23627;53.302;-6.362;2022-09-09T07:13:30;15.00;99.90
37788;DHT22;23627;53.302;-6.362;2022-09-09T07:16:04;15.00;99.90
37788;DHT22;23627;53.302;-6.362;2022-09-09T07:18:31;15.10;99.90
37788;DHT22;23627;53.302;-6.362;2022-09-09T07:20:57;15.10;99.90
37788;DHT22;23627;53.302;-6.362;2022-09-09T07:23:23;15.20;99.90
37788;DHT22;23627;53.302;-6.362;2022-09-09T07:25:49;15.20;99.90
37788;DHT22;23627;53.302;-6.362;2022-09-09T07:28:16;15.30;99.90
37788;DHT22;23627;53.302;-6.362;2022-09-09T07:30:42;15.20;99.90
37788;DHT22;23627;53.302;-6.362;2022-09-09T07:33:09;15.20;99.90
37788;DHT22;23627;53.302;-6.362;2022-09-09T07:35:37;15.30;99.90
37788;DHT22;23627;53.302;-6.362;2022-09-09T07:38:03;15.30;99.90
37788;DHT22;23627;53.302;-6.362;2022-09-09T07:40:33;15.30;99.90
37788;DHT22;23627;53.302;-6.362;2022-09-09T07:43:00;15.30;99.90
37788;DHT22;23627;53.302;-6.362;2022-09-09T07:45:26;15.30;99.90
37788;DHT22;23627;53.302;-6.362;2022-09-09T07:47:54;15.30;99.90
37788;DHT22;23627;53.302;-6.362;2022-09-09T07:50:22;15.40;99.90
37788;DHT22;23627;53.302;-6.362;2022-09-09T07:52:50;15.40;99.90
37788;DHT22;23627;53.302;-6.362;2022-09-09T07:55:16;15.50;99.90
37788;DHT22;23627;53.302;-6.362;2022-09-09T07:57:43;15.50;99.90
37788;DHT22;23627;53.302;-6.362;2022-09-09T08:00:09;15.60;99.90
37788;DHT22;23627;53.302;-6.362;2022-09-09T08:02:36;15.60;99.90
37788;DHT22;23627;53.302;-6.362;2022-09-09T08:05:02;15.60;99.90
37788;DHT22;23627;53.302;-6.362;2022-09-09T08:07:29;15.70;99.90
37788;DHT22;23627;53.302;-6.362;2022-09-09T08:09:56;15.70;99.90
37788;DHT22;23627;53.302;-6.362;2022-09-09T08:12:22;15.70;99.90
37788;DHT22;23627;53.302;-6.362;2022-09-09T08:14:48;15.80;99.90
37788;DHT22;23627;53.302;-6.362;2022-09-09T08:17:14;15.70;99.90
37788;DHT22;23627;53.302;-6.362;2022-09-09T08:19:45;15.80;99.90
37788;DHT22;23627;53.302;-6.362;2022-09-09T08:22:15;15.90;99.90
37788;DHT22;23627;53.302;-6.362;2022-09-09T08:24:41;16.00;99.90
37788;DHT22;23627;53.302;-6.362;2022-09-09T08:27:08;16.10;99.90
37788;DHT22;23627;53.302;-6.362;2022-09-09T08:29:37;16.30;99.90
37788;DHT22;23627;53.302;-6.362;2022-09-09T08:32:09;16.40;99.90
37788;DHT22;23627;53.302;-6.362;2022-09-09T08:34:40;16.50;99.90
37788;DHT22;23627;53.302;-6.362;2022-09-09T08:37:07;16.60;99.90
37788;DHT22;23627;53.302;-6.362;2022-09-09T08:39:34;16.60;99.90
37788;DHT22;23627;53.302;-6.362;2022-09-09T08:42:31;16.70;99.90
37788;DHT22;23627;53.302;-6.362;2022-09-09T08:45:24;16.80;99.90
37788;DHT22;23627;53.302;-6.362;2022-09-09T08:48:17;16.70;99.90
37788;DHT22;23627;53.302;-6.362;2022-09-09T08:50:49;16.70;99.90
37788;DHT22;23627;53.302;-6.362;2022-09-09T08:53:26;16.70;99.90
37788;DHT22;23627;53.302;-6.362;2022-09-09T08:56:24;16.60;99.90
37788;DHT22;23627;53.302;-6.362;2022-09-09T08:58:53;16.60;99.90
37788;DHT22;23627;53.302;-6.362;2022-09-09T09:09:31;17.00;99.90
37788;DHT22;23627;53.302;-6.362;2022-09-09T09:12:00;17.00;99.90
37788;DHT22;23627;53.302;-6.362;2022-09-09T09:14:31;17.00;99.90
37788;DHT22;23627;53.302;-6.362;2022-09-09T09:19:33;16.90;99.90
37788;DHT22;23627;53.302;-6.362;2022-09-09T09:22:20;16.90;99.90
37788;DHT22;23627;53.302;-6.362;2022-09-09T09:25:26;16.90;99.90
37788;DHT22;23627;53.302;-6.362;2022-09-09T09:28:03;16.90;99.90
37788;DHT22;23627;53.302;-6.362;2022-09-09T09:30:36;16.80;99.90
37788;DHT22;23627;53.302;-6.362;2022-09-09T09:35:56;16.90;99.90
37788;DHT22;23627;53.302;-6.362;2022-09-09T09:38:26;16.90;99.90
37788;DHT22;23627;53.302;-6.362;2022-09-09T09:40:58;17.00;99.90
37788;DHT22;23627;53.302;-6.362;2022-09-09T09:43:29;17.00;99.90
37788;DHT22;23627;53.302;-6.362;2022-09-09T09:45:55;17.00;99.90
37788;DHT22;23627;53.302;-6.362;2022-09-09T09:48:24;17.10;99.90
37788;DHT22;23627;53.302;-6.362;2022-09-09T09:51:08;17.10;99.90
37788;DHT22;23627;53.302;-6.362;2022-09-09T09:53:37;17.20;99.90
37788;DHT22;23627;53.302;-6.362;2022-09-09T09:56:07;17.30;99.90
37788;DHT22;23627;53.302;-6.362;2022-09-09T09:58:48;17.30;99.90
37788;DHT22;23627;53.302;-6.362;2022-09-09T10:01:32;17.30;99.90
37788;DHT22;23627;53.302;-6.362;2022-09-09T10:20:44;17.70;99.90
37788;DHT22;23627;53.302;-6.362;2022-09-09T10:43:09;17.90;99.90
37788;DHT22;23627;53.302;-6.362;2022-09-09T10:45:49;18.00;99.90
37788;DHT22;23627;53.302;-6.362;2022-09-09T10:54:28;18.20;99.90
37788;DHT22;23627;53.302;-6.362;2022-09-09T10:57:05;18.20;99.90
37788;DHT22;23627;53.302;-6.362;2022-09-09T10:59:39;18.20;99.90
37788;DHT22;23627;53.302;-6.362;2022-09-09T11:02:15;18.10;99.90
37788;DHT22;23627;53.302;-6.362;2022-09-09T11:13:52;17.90;99.90
37788;DHT22;23627;53.302;-6.362;2022-09-09T11:16:29;17.90;99.90
37788;DHT22;23627;53.302;-6.362;2022-09-09T11:19:10;17.80;99.90
37788;DHT22;23627;53.302;-6.362;2022-09-09T11:21:47;17.80;99.90
37788;DHT22;23627;53.302;-6.362;2022-09-09T11:24:37;17.70;99.90
37788;DHT22;23627;53.302;-6.362;2022-09-09T11:41:09;17.50;99.90
37788;DHT22;23627;53.302;-6.362;2022-09-09T11:44:12;17.50;99.90
37788;DHT22;23627;53.302;-6.362;2022-09-09T11:46:47;17.60;99.90
37788;DHT22;23627;53.302;-6.362;2022-09-09T11:49:42;17.60;99.90
37788;DHT22;23627;53.302;-6.362;2022-09-09T11:52:37;17.70;99.90
37788;DHT22;23627;53.302;-6.362;2022-09-09T11:55:26;17.80;99.90
37788;DHT22;23627;53.302;-6.362;2022-09-09T12:00:58;18.10;99.90
37788;DHT22;23627;53.302;-6.362;2022-09-09T12:03:50;18.00;99.90
37788;DHT22;23627;53.302;-6.362;2022-09-09T12:13:06;18.30;99.90
37788;DHT22;23627;53.302;-6.362;2022-09-09T12:15:35;18.30;99.90
37788;DHT22;23627;53.302;-6.362;2022-09-09T12:28:18;18.60;99.90
37788;DHT22;23627;53.302;-6.362;2022-09-09T12:34:02;19.10;99.90
37788;DHT22;23627;53.302;-6.362;2022-09-09T12:36:33;19.30;99.90
37788;DHT22;23627;53.302;-6.362;2022-09-09T12:42:53;19.10;99.90
37788;DHT22;23627;53.302;-6.362;2022-09-09T12:45:25;18.90;99.90
37788;DHT22;23627;53.302;-6.362;2022-09-09T12:48:11;18.70;99.90
37788;DHT22;23627;53.302;-6.362;2022-09-09T12:50:49;18.60;99.90
37788;DHT22;23627;53.302;-6.362;2022-09-09T12:53:33;18.50;99.90
37788;DHT22;23627;53.302;-6.362;2022-09-09T12:56:17;18.40;99.90
37788;DHT22;23627;53.302;-6.362;2022-09-09T12:58:50;18.40;99.90
37788;DHT22;23627;53.302;-6.362;2022-09-09T13:01:35;18.40;99.90
37788;DHT22;23627;53.302;-6.362;2022-09-09T13:04:01;18.50;99.90
37788;DHT22;23627;53.302;-6.362;2022-09-09T13:06:32;18.50;99.90
37788;DHT22;23627;53.302;-6.362;2022-09-09T13:09:00;18.50;99.90
37788;DHT22;23627;53.302;-6.362;2022-09-09T13:11:52;18.60;99.90
37788;DHT22;23627;53.302;-6.362;2022-09-09T13:14:34;18.70;99.90
37788;DHT22;23627;53.302;-6.362;2022-09-09T13:17:04;18.70;99.90
37788;DHT22;23627;53.302;-6.362;2022-09-09T13:19:48;18.70;99.90
37788;DHT22;23627;53.302;-6.362;2022-09-09T13:22:37;18.70;99.90
37788;DHT22;23627;53.302;-6.362;2022-09-09T13:28:00;18.80;99.90
37788;DHT22;23627;53.302;-6.362;2022-09-09T13:30:33;18.80;99.90
37788;DHT22;23627;53.302;-6.362;2022-09-09T13:33:21;18.90;99.90
37788;DHT22;23627;53.302;-6.362;2022-09-09T13:36:16;18.90;99.90
37788;DHT22;23627;53.302;-6.362;2022-09-09T13:42:05;19.10;99.90
37788;DHT22;23627;53.302;-6.362;2022-09-09T14:18:11;18.70;99.90
37788;DHT22;23627;53.302;-6.362;2022-09-09T14:20:38;18.70;99.90
37788;DHT22;23627;53.302;-6.362;2022-09-09T14:23:04;18.60;99.90
37788;DHT22;23627;53.302;-6.362;2022-09-09T14:25:30;18.50;99.90
37788;DHT22;23627;53.302;-6.362;2022-09-09T14:27:57;18.30;99.90
37788;DHT22;23627;53.302;-6.362;2022-09-09T14:30:24;18.20;99.90
37788;DHT22;23627;53.302;-6.362;2022-09-09T14:32:51;18.10;99.90
37788;DHT22;23627;53.302;-6.362;2022-09-09T14:35:17;18.10;99.90
37788;DHT22;23627;53.302;-6.362;2022-09-09T14:37:45;18.10;99.90
37788;DHT22;23627;53.302;-6.362;2022-09-09T14:40:30;18.10;99.90
37788;DHT22;23627;53.302;-6.362;2022-09-09T14:42:58;18.20;99.90
37788;DHT22;23627;53.302;-6.362;2022-09-09T14:45:29;18.20;99.90
37788;DHT22;23627;53.302;-6.362;2022-09-09T14:47:55;18.10;99.90
37788;DHT22;23627;53.302;-6.362;2022-09-09T14:50:22;18.10;99.90
37788;DHT22;23627;53.302;-6.362;2022-09-09T14:52:48;18.10;99.90
37788;DHT22;23627;53.302;-6.362;2022-09-09T14:55:17;18.10;99.90
37788;DHT22;23627;53.302;-6.362;2022-09-09T14:57:43;18.10;99.90
37788;DHT22;23627;53.302;-6.362;2022-09-09T15:00:10;18.00;99.90
37788;DHT22;23627;53.302;-6.362;2022-09-09T15:02:36;18.00;99.90
37788;DHT22;23627;53.302;-6.362;2022-09-09T15:05:02;18.00;99.90
37788;DHT22;23627;53.302;-6.362;2022-09-09T15:07:29;18.10;99.90
37788;DHT22;23627;53.302;-6.362;2022-09-09T15:09:57;18.10;99.90
37788;DHT22;23627;53.302;-6.362;2022-09-09T15:12:24;18.10;99.90
37788;DHT22;23627;53.302;-6.362;2022-09-09T15:15:20;18.10;99.90
37788;DHT22;23627;53.302;-6.362;2022-09-09T15:17:48;18.20;99.90
37788;DHT22;23627;53.302;-6.362;2022-09-09T15:20:16;18.30;99.90
37788;DHT22;23627;53.302;-6.362;2022-09-09T15:22:42;18.30;99.90
37788;DHT22;23627;53.302;-6.362;2022-09-09T15:25:08;18.40;99.90
37788;DHT22;23627;53.302;-6.362;2022-09-09T15:27:34;18.30;99.90
37788;DHT22;23627;53.302;-6.362;2022-09-09T15:30:00;18.40;99.90
37788;DHT22;23627;53.302;-6.362;2022-09-09T15:32:27;18.40;99.90
37788;DHT22;23627;53.302;-6.362;2022-09-09T15:34:52;18.40;99.90
37788;DHT22;23627;53.302;-6.362;2022-09-09T15:37:19;18.50;99.90
37788;DHT22;23627;53.302;-6.362;2022-09-09T15:39:45;18.50;99.90
37788;DHT22;23627;53.302;-6.362;2022-09-09T15:42:11;18.50;99.90
37788;DHT22;23627;53.302;-6.362;2022-09-09T15:44:45;18.50;99.90
37788;DHT22;23627;53.302;-6.362;2022-09-09T15:47:18;18.50;99.90
37788;DHT22;23627;53.302;-6.362;2022-09-09T15:49:47;18.50;99.90
37788;DHT22;23627;53.302;-6.362;2022-09-09T15:55:16;18.40;99.90
37788;DHT22;23627;53.302;-6.362;2022-09-09T15:57:43;18.30;99.90
37788;DHT22;23627;53.302;-6.362;2022-09-09T16:00:09;18.30;99.90
37788;DHT22;23627;53.302;-6.362;2022-09-09T16:02:48;18.30;99.90
37788;DHT22;23627;53.302;-6.362;2022-09-09T16:05:14;18.30;99.90
37788;DHT22;23627;53.302;-6.362;2022-09-09T16:07:47;18.30;99.90
37788;DHT22;23627;53.302;-6.362;2022-09-09T16:10:13;18.20;99.90
37788;DHT22;23627;53.302;-6.362;2022-09-09T16:12:39;18.20;99.90
37788;DHT22;23627;53.302;-6.362;2022-09-09T16:15:08;18.20;99.90
37788;DHT22;23627;53.302;-6.362;2022-09-09T16:17:41;18.10;99.90
37788;DHT22;23627;53.302;-6.362;2022-09-09T16:20:08;18.10;99.90
37788;DHT22;23627;53.302;-6.362;2022-09-09T16:33:50;18.20;99.90
37788;DHT22;23627;53.302;-6.362;2022-09-09T16:36:50;18.10;99.90
37788;DHT22;23627;53.302;-6.362;2022-09-09T16:39:22;18.10;99.90
37788;DHT22;23627;53.302;-6.362;2022-09-09T16:51:40;17.90;99.90
37788;DHT22;23627;53.302;-6.362;2022-09-09T16:54:27;17.90;99.90
37788;DHT22;23627;53.302;-6.362;2022-09-09T16:57:13;17.80;99.90
37788;DHT22;23627;53.302;-6.362;2022-09-09T16:59:47;17.70;99.90
37788;DHT22;23627;53.302;-6.362;2022-09-09T17:09:08;17.70;99.90
37788;DHT22;23627;53.302;-6.362;2022-09-09T17:11:37;17.60;99.90
37788;DHT22;23627;53.302;-6.362;2022-09-09T17:14:14;17.60;99.90
37788;DHT22;23627;53.302;-6.362;2022-09-09T17:16:50;17.50;99.90
37788;DHT22;23627;53.302;-6.362;2022-09-09T17:19:41;17.50;99.90
37788;DHT22;23627;53.302;-6.362;2022-09-09T17:22:16;17.50;99.90
37788;DHT22;23627;53.302;-6.362;2022-09-09T17:28:15;17.50;99.90
37788;DHT22;23627;53.302;-6.362;2022-09-09T17:30:41;17.50;99.90
37788;DHT22;23627;53.302;-6.362;2022-09-09T17:33:14;17.50;99.90
37788;DHT22;23627;53.302;-6.362;2022-09-09T17:35:44;17.50;99.90
37788;DHT22;23627;53.302;-6.362;2022-09-09T17:38:10;17.50;99.90
37788;DHT22;23627;53.302;-6.362;2022-09-09T17:40:37;17.50;99.90
37788;DHT22;23627;53.302;-6.362;2022-09-09T17:43:03;17.50;99.90
37788;DHT22;23627;53.302;-6.362;2022-09-09T17:45:32;17.50;99.90
37788;DHT22;23627;53.302;-6.362;2022-09-09T17:47:58;17.50;99.90
37788;DHT22;23627;53.302;-6.362;2022-09-09T17:50:24;17.60;99.90
37788;DHT22;23627;53.302;-6.362;2022-09-09T17:52:50;17.60;99.90
37788;DHT22;23627;53.302;-6.362;2022-09-09T17:55:16;17.60;99.90
37788;DHT22;23627;53.302;-6.362;2022-09-09T17:57:46;17.60;99.90
37788;DHT22;23627;53.302;-6.362;2022-09-09T18:00:13;17.60;99.90
37788;DHT22;23627;53.302;-6.362;2022-09-09T18:02:39;17.60;99.90
37788;DHT22;23627;53.302;-6.362;2022-09-09T18:05:05;17.50;99.90
37788;DHT22;23627;53.302;-6.362;2022-09-09T18:07:31;17.50;99.90
37788;DHT22;23627;53.302;-6.362;2022-09-09T18:09:56;17.40;99.90
37788;DHT22;23627;53.302;-6.362;2022-09-09T18:12:22;17.40;99.90
37788;DHT22;23627;53.302;-6.362;2022-09-09T18:14:48;17.40;99.90
37788;DHT22;23627;53.302;-6.362;2022-09-09T18:17:16;17.40;99.90
37788;DHT22;23627;53.302;-6.362;2022-09-09T18:19:41;17.30;99.90
37788;DHT22;23627;53.302;-6.362;2022-09-09T18:22:07;17.30;99.90
37788;DHT22;23627;53.302;-6.362;2022-09-09T18:24:33;17.20;99.90
37788;DHT22;23627;53.302;-6.362;2022-09-09T18:27:00;17.20;99.90
37788;DHT22;23627;53.302;-6.362;2022-09-09T18:29:26;17.10;99.90
37788;DHT22;23627;53.302;-6.362;2022-09-09T18:31:58;17.10;99.90
37788;DHT22;23627;53.302;-6.362;2022-09-09T18:34:24;17.10;99.90
37788;DHT22;23627;53.302;-6.362;2022-09-09T18:36:53;17.00;99.90
37788;DHT22;23627;53.302;-6.362;2022-09-09T18:39:22;17.00;99.90
37788;DHT22;23627;53.302;-6.362;2022-09-09T18:41:51;17.00;99.90
37788;DHT22;23627;53.302;-6.362;2022-09-09T18:44:21;17.00;99.90
37788;DHT22;23627;53.302;-6.362;2022-09-09T18:46:48;16.90;99.90
37788;DHT22;23627;53.302;-6.362;2022-09-09T18:49:14;16.90;99.90
37788;DHT22;23627;53.302;-6.362;2022-09-09T18:51:42;16.90;99.90
37788;DHT22;23627;53.302;-6.362;2022-09-09T18:54:16;16.80;99.90
37788;DHT22;23627;53.302;-6.362;2022-09-09T18:56:42;16.80;99.90
37788;DHT22;23627;53.302;-6.362;2022-09-09T18:59:12;16.70;99.90
37788;DHT22;23627;53.302;-6.362;2022-09-09T19:01:38;16.60;99.90
37788;DHT22;23627;53.302;-6.362;2022-09-09T19:04:05;16.60;99.90
37788;DHT22;23627;53.302;-6.362;2022-09-09T19:06:33;16.50;99.90
37788;DHT22;23627;53.302;-6.362;2022-09-09T19:08:59;16.50;99.90
37788;DHT22;23627;53.302;-6.362;2022-09-09T19:11:26;16.50;99.90
37788;DHT22;23627;53.302;-6.362;2022-09-09T19:13:54;16.50;99.90
37788;DHT22;23627;53.302;-6.362;2022-09-09T19:16:21;16.40;99.90
37788;DHT22;23627;53.302;-6.362;2022-09-09T19:18:48;16.40;99.90
37788;DHT22;23627;53.302;-6.362;2022-09-09T19:21:19;16.40;99.90
37788;DHT22;23627;53.302;-6.362;2022-09-09T19:23:54;16.40;99.90
37788;DHT22;23627;53.302;-6.362;2022-09-09T19:26:20;16.30;99.90